Monteview, ID

4:30 PM MDT on September 23, 2014 (GMT -0600)
ITD Sage Junction I-15/SH-33 ID US | Change Station
CLOSE
Current Station
Personal Weather Station
Location: Hamer, ID
Elevation: 4950 ft
Nearby Weather Stations

Elev 4950 ft 43.83 °N, 112.20 °W | Updated 45 minutes ago

Partly Cloudy
Partly Cloudy
74 °F
Feels Like 77 °F
N
11
Wind Variable Wind from SW
Gusts 15.0 mph

Today
High -- | Low -- °F
--% Chance of Precip.
Yesterday
High -- | Low -- °F
Precip. -- in
7:18 AM 7:25 PM
Waning Crescent, 0% visible
Pressure 30.03 in
Visibility 10.0 miles
Clouds Few 8500 ft
Heat Index 77 °F
Dew Point 45 °F
Humidity 35%
Rainfall -999.00 in
Snow Depth 0 in , 0 in , 0 in
UV 4 out of 12
Pollen 6.80 out of 12
PM2.5 Good
Flu Activity Not available.
METAR KIDA 232153Z 25009KT 10SM FEW085 26/09 A3014 RMK AO2 SLP169 T02560089

More Conditions Fewer Conditions

Pressure 30.03 in
Visibility 10.0 miles
Clouds Few 8500 ft
Heat Index 77 °F
Dew Point 45 °F
Humidity 35%
Rainfall -999.00 in
Snow Depth 0 in , 0 in , 0 in
UV 4 out of 12
Pollen 6.80 out of 12
PM2.5 Good
Flu Activity Not available.
METAR KIDA 232153Z 25009KT 10SM FEW085 26/09 A3014 RMK AO2 SLP169 T02560089

More Conditions Fewer Conditions

10-Day Weather Forecast

Almanac

Astronomy

Sep. 23, 2014 Rise Set
Actual Time 7:18 AM MDT 7:25 PM MDT
Civil Twilight 6:49 AM MDT 7:54 PM MDT
Nautical Twilight 6:16 AM MDT 8:27 PM MDT
Astronomical Twilight 5:41 AM MDT 9:02 PM MDT
Moon 6:46 AM MDT 7:05 PM MDT
Length of Visible Light 13h 04m
Length of Day
12h 06m
Tomorrow will be 3m 0s shorter.
Waning Crescent, 0% of the Moon is Illuminated
Today
Waning Crescent
Sep 24
New
Oct 1
First Quarter
Oct 8
Full
Oct 15
Last Quarter

Today's Extremes

State Highs State Lows

Community

WunderPhotos

Upload Photos

1,755,810 photos uploaded!

WunderBlogs® & News

Nearby

Air Quality

  Air Quality AQ Index Pollutant
Yesterday Good
PM2.5
Current Good
PM2.5

Snow Depth

Station Depth Elevation
Smiley Mountain 0 in 9520 ft
Atlanta Summit 0 in 7580 ft
Schweitzer Basin 0 in 6090 ft
Bear Canyon 0 in 7900 ft
Wildhorse Divide 0 in 6490 ft

Earthquake Activity

City Distance Mag. Time & Date
No recent earthquake activity has been reported nearby.
Minimum magnitude displayed is 2.5.

Coastal Water Temperatures

Place Temperature
No Stations Reporting

Nearby Weather Stations